Aérodrome :
LOGIN :

S'inscrire | Disclaimer

   EN    FR    IT 

 










Légende :    VFR   VFR Marginal   IFR   IFR Intensif   IFR Très Intensif
Visi : 
Plafond : 
>= 8 km
>= 3000ft
5 à 8 km
1000 à 3000 ft
1500m à 5 km
500 à 1000 ft
800 à 1500m
200 à 500 ft
< 800m
< 200 ft
Symboles :   Orages  Brouillard  Fortes neiges  Fortes précipitations  Vent > 20 kt
SIGMETs :   Divers  Orages  Givrage  Turbulence  Onde Orograph.  Cendres Volcan.






- Altitude de l'aérodrome : 686 ft
- Code IATA : URS


UUOK - Vostochny

DERNIER METAR :
  • 221330Z 27006MPS 9000 -RA OVC004 02/00 Q0999 R30/290050 NOSIG RMK QBB130 QFE731/0974

METARs EXPIRÉS :
  • 221300Z 26005MPS 8000 -SHRASN BKN003 OVC020CB 02/01 Q0999 R30/290050 NOSIG RMK QBB110 QFE731/0975
  • 221230Z 26005MPS 3700 -SHRASN BKN003 OVC020CB 01/00 Q0999 R30/290050 NOSIG RMK QBB110 QFE731/0975
  • 221200Z 26006MPS 5000 -RA OVC005 02/01 Q1000 R30/290050 NOSIG RMK QBB150 QFE731/0975
  • 221130Z 26006MPS 7000 -DZ OVC005 02/01 Q1001 R30/290050 NOSIG RMK QFE732/0976
  • 221100Z 26007MPS 8000 -DZ OVC005 02/01 Q1001 R30/290050 NOSIG RMK QFE732/0977

TAF TAF UUOK
Valide du 22 à 12h jusqu'au 22 à 21h UTC


221100Z 2212/2221 28005G10MPS 3100 -SHRASN BR BKN005 BKN015CB
TEMPO 2212/2218 1000 SHRA BKN004 BKN010CB



MET'MAP, la Météo Aéronautique d'un coup d'oeil ! - Copyright ORBIFLY Décembre 2007 - Disclaimer

ORBIFLY MET'MAP TEAM :

Programmation & Développement : Alexandra Zaïnal
Sur une idée originale de : Baudouin d'Aumeries
Assistance à la programmation : Marc-Olivier Méhu
Soutien technique & logistique : Manuel Goepfert

Contact : metmap@orbifly.com




SOURCES & CREDITS :

   NOAA